Contact.

Ici la base.

Implantée sur l’aérodrome de Reims-Prunay, Fly&Fun et ses membres profitent de la région champenoise pour voler dans un cadre exceptionnel et partager cette ferveur commune autour de l’aéronautique.

ouvrir google map

Social Wall.

Vivamus sagittis lacus vel augue laoreet rutrum faucibus dolor auctor. Duis mollis, est non commodo luctu.

Facebook.

1 week ago

Fly & Fun

Une belle équipe motivée et enthousiaste, bon anniversaire George! ... See MoreSee Less

Une belle équipe motivée et enthousiaste, bon anniversaire George!Image attachmentImage attachment

1 week ago

Fly & Fun

Ambiance Top Gun 2 ce matin avec Anne-Marie et Martin 🤟😎 ... See MoreSee Less

Ambiance Top Gun 2 ce matin avec Anne-Marie et Martin 🤟😎Image attachment

 

Comment on Facebook

C’était tellement dingue!!!!! Merci à vous tous pour cette journée inoubliable 🙌🏻🙌🏻🙌🏻🙌🏻

Super je vous ai vu j etais a table

I like the Design.😍

❤❤❤❤❤

+ View more comments

Instagram.
This error message is only visible to WordPress admins
This endpoint has been retired

Error: No posts found.

Make sure this account has posts available on instagram.com.

METAR :

LFQA 122200Z AUTO 02009KT CAVOK 17/09 Q1024


vue en direct sur l'aérodrome
mentions légales politique de confidentialité
Cochet Concept
cx